Time;durP1;ratioP1;P1;durP2;ratioP2;P2;SDS_P1;SDS_P2;PMS_P1;PMS_P2;Temp;Humidity;BMP_temperature;BMP_pressure;BME280_temperature;BME280_humidity;BME280_pressure;Samples;Min_cycle;Max_cycle;Signal;HPM_P1;HPM_P2
2022/12/11 00:02:05;;;;;;;;;;;;;;;;;;4976665;28;19944;-89
2022/12/11 00:04:31;;;;;;;;;;;;;;;;;;4976595;28;20436;-89
2022/12/11 00:06:57;;;;;;;;;;;;;;;;;;4977237;28;19928;-89
2022/12/11 00:09:23;;;;;;;;;;;;;;;;;;4976507;28;19921;-89
2022/12/11 00:11:49;;;;;;;;;;;;;;;;;;4976686;28;19923;-89
2022/12/11 00:14:15;;;;;;;;;;;;;;;;;;4976500;28;19921;-89
2022/12/11 00:16:41;;;;;;;;;;;;;;;;;;4976482;28;20012;-89
2022/12/11 00:19:07;;;;;;;;;;;;;;;;;;4976545;28;20284;-87
2022/12/11 00:21:33;;;;;;;;;;;;;;;;;;4976256;28;19977;-89
2022/12/11 00:23:59;;;;;;;;;;;;;;;;;;4976301;28;20062;-89
2022/12/11 00:26:24;;;;;;;;;;;;;;;;;;4975996;28;19932;-88
2022/12/11 00:28:50;;;;;;;;;;;;;;;;;;4976138;28;19932;-88
2022/12/11 00:31:16;;;;;;;;;;;;;;;;;;4976412;28;19926;-89
2022/12/11 00:33:42;;;;;;;;;;;;;;;;;;4976041;28;19922;-88
2022/12/11 00:36:08;;;;;;;;;;;;;;;;;;4976195;28;20016;-89
2022/12/11 00:38:34;;;;;;;;;;;;;;;;;;4976199;28;19921;-88
2022/12/11 00:41:00;;;;;;;;;;;;;;;;;;4976088;28;19922;-89
2022/12/11 00:43:26;;;;;;;;;;;;;;;;;;4975951;28;19921;-89
2022/12/11 00:45:52;;;;;;;;;;;;;;;;;;4975867;28;19922;-89
2022/12/11 00:48:18;;;;;;;;;;;;;;;;;;4975885;28;20262;-89
2022/12/11 00:50:44;;;;;;;;;;;;;;;;;;4975769;28;20344;-89
2022/12/11 00:53:09;;;;;;;;;;;;;;;;;;4975890;28;19929;-89
2022/12/11 00:55:35;;;;;;;;;;;;;;;;;;4975662;28;19984;-89
2022/12/11 00:58:01;;;;;;;;;;;;;;;;;;4975683;28;20017;-89
2022/12/11 01:00:27;;;;;;;;;;;;;;;;;;4975759;28;20289;-89
2022/12/11 01:02:53;;;;;;;;;;;;;;;;;;4975669;28;19948;-89
2022/12/11 01:05:19;;;;;;;;;;;;;;;;;;4975639;28;19921;-89
2022/12/11 01:07:45;;;;;;;;;;;;;;;;;;4975606;28;19928;-89
2022/12/11 01:10:23;;;;;;;;;;;;;;;;;;4975701;28;19922;-89
2022/12/11 01:12:49;;;;;;;;;;;;;;;;;;4975556;28;19960;-89
2022/12/11 01:15:15;;;;;;;;;;;;;;;;;;4975301;28;20269;-89
2022/12/11 01:17:41;;;;;;;;;;;;;;;;;;4975325;28;20020;-89
2022/12/11 01:20:07;;;;;;;;;;;;;;;;;;4975424;28;20017;-89
2022/12/11 01:22:33;;;;;;;;;;;;;;;;;;4975414;28;20294;-90
2022/12/11 01:24:59;;;;;;;;;;;;;;;;;;4975468;28;19996;-89
2022/12/11 01:27:24;;;;;;;;;;;;;;;;;;4975409;28;19976;-89
2022/12/11 01:29:50;;;;;;;;;;;;;;;;;;4975360;28;19933;-89
2022/12/11 01:32:16;;;;;;;;;;;;;;;;;;4975292;28;19929;-89
2022/12/11 01:34:42;;;;;;;;;;;;;;;;;;4975442;28;20286;-87
2022/12/11 01:37:08;;;;;;;;;;;;;;;;;;4975256;28;19926;-87
2022/12/11 01:39:34;;;;;;;;;;;;;;;;;;4975367;28;19922;-86
2022/12/11 01:42:00;;;;;;;;;;;;;;;;;;4975181;28;19925;-86
2022/12/11 01:44:27;;;;;;;;;;;;;;;;;;4975222;28;19993;-87
2022/12/11 01:46:53;;;;;;;;;;;;;;;;;;4975337;28;19976;-87
2022/12/11 01:49:19;;;;;;;;;;;;;;;;;;4975130;28;20016;-86
2022/12/11 01:51:45;;;;;;;;;;;;;;;;;;4975070;28;20000;-87
2022/12/11 01:54:11;;;;;;;;;;;;;;;;;;4975260;28;20337;-87
2022/12/11 01:56:37;;;;;;;;;;;;;;;;;;4975219;28;19925;-89
2022/12/11 01:59:06;;;;;;;;;;;;;;;;;;4975129;28;20009;-87
2022/12/11 02:01:32;;;;;;;;;;;;;;;;;;4991580;28;20281;-87
2022/12/11 02:03:57;;;;;;;;;;;;;;;;;;4975016;28;19929;-90
2022/12/11 02:06:23;;;;;;;;;;;;;;;;;;4975017;28;19922;-90
2022/12/11 02:08:49;;;;;;;;;;;;;;;;;;4974894;28;19981;-90
2022/12/11 02:11:15;;;;;;;;;;;;;;;;;;4975159;28;20340;-88
2022/12/11 02:13:41;;;;;;;;;;;;;;;;;;4975313;28;20266;-87
2022/12/11 02:16:07;;;;;;;;;;;;;;;;;;4975312;28;20024;-87
2022/12/11 02:18:33;;;;;;;;;;;;;;;;;;4974941;28;19929;-87
2022/12/11 02:20:59;;;;;;;;;;;;;;;;;;4975478;28;19926;-87
2022/12/11 02:23:25;;;;;;;;;;;;;;;;;;4975181;28;19969;-87
2022/12/11 02:25:51;;;;;;;;;;;;;;;;;;4974906;28;20008;-87
2022/12/11 02:28:16;;;;;;;;;;;;;;;;;;4976501;28;19976;-88
2022/12/11 02:30:42;;;;;;;;;;;;;;;;;;4978820;28;20254;-87
2022/12/11 02:33:08;;;;;;;;;;;;;;;;;;4978258;28;19922;-87
2022/12/11 02:35:34;;;;;;;;;;;;;;;;;;4978403;28;19922;-88
2022/12/11 02:38:00;;;;;;;;;;;;;;;;;;4978471;28;19969;-88
2022/12/11 02:40:26;;;;;;;;;;;;;;;;;;4978461;28;19922;-87
2022/12/11 02:42:52;;;;;;;;;;;;;;;;;;4978516;28;19929;-88
2022/12/11 02:45:18;;;;;;;;;;;;;;;;;;4978292;28;19922;-87
2022/12/11 02:47:45;;;;;;;;;;;;;;;;;;4978099;28;19925;-88
2022/12/11 02:50:11;;;;;;;;;;;;;;;;;;4978064;28;20020;-88
2022/12/11 02:52:37;;;;;;;;;;;;;;;;;;4978390;28;20316;-87
2022/12/11 02:55:03;;;;;;;;;;;;;;;;;;4978378;28;19925;-87
2022/12/11 02:57:29;;;;;;;;;;;;;;;;;;4978011;28;19926;-88
2022/12/11 02:59:55;;;;;;;;;;;;;;;;;;4977985;28;20033;-88
2022/12/11 03:02:21;;;;;;;;;;;;;;;;;;4977796;28;19932;-90
2022/12/11 03:04:46;;;;;;;;;;;;;;;;;;4977884;28;19921;-88
2022/12/11 03:07:12;;;;;;;;;;;;;;;;;;4977736;28;19922;-90
2022/12/11 03:09:38;;;;;;;;;;;;;;;;;;4978012;28;19921;-87
2022/12/11 03:12:04;;;;;;;;;;;;;;;;;;4977791;28;20000;-88
2022/12/11 03:14:30;;;;;;;;;;;;;;;;;;4977628;28;20005;-88
2022/12/11 03:16:56;;;;;;;;;;;;;;;;;;4977420;28;19926;-87
2022/12/11 03:19:22;;;;;;;;;;;;;;;;;;4977702;28;19968;-90
2022/12/11 03:21:48;;;;;;;;;;;;;;;;;;4977836;28;20274;-88
2022/12/11 03:24:14;;;;;;;;;;;;;;;;;;4977495;28;20337;-88
2022/12/11 03:26:40;;;;;;;;;;;;;;;;;;4958117;28;20211;-89
2022/12/11 03:29:05;;;;;;;;;;;;;;;;;;4958074;28;19922;-88
2022/12/11 03:31:31;;;;;;;;;;;;;;;;;;4957764;28;19937;-88
2022/12/11 03:33:57;;;;;;;;;;;;;;;;;;4957910;28;20012;-88
2022/12/11 03:36:23;;;;;;;;;;;;;;;;;;4957816;28;19927;-89
2022/12/11 03:38:49;;;;;;;;;;;;;;;;;;4957592;28;19942;-88
2022/12/11 03:41:15;;;;;;;;;;;;;;;;;;4957766;28;19922;-88
2022/12/11 03:43:41;;;;;;;;;;;;;;;;;;4957741;28;19922;-88
2022/12/11 03:46:07;;;;;;;;;;;;;;;;;;4957603;28;19923;-88
2022/12/11 03:48:33;;;;;;;;;;;;;;;;;;4957656;28;19929;-88
2022/12/11 03:50:59;;;;;;;;;;;;;;;;;;4957901;28;20002;-89
2022/12/11 03:53:25;;;;;;;;;;;;;;;;;;4957959;28;20323;-88
2022/12/11 03:55:51;;;;;;;;;;;;;;;;;;4957969;28;19969;-88
2022/12/11 03:58:16;;;;;;;;;;;;;;;;;;4957422;28;19922;-88
2022/12/11 04:00:42;;;;;;;;;;;;;;;;;;4957419;28;20360;-89
2022/12/11 04:03:11;;;;;;;;;;;;;;;;;;4957390;28;20014;-88
2022/12/11 04:05:37;;;;;;;;;;;;;;;;;;4958009;28;20359;-88
2022/12/11 04:08:03;;;;;;;;;;;;;;;;;;4957579;28;19922;-88
2022/12/11 04:10:29;;;;;;;;;;;;;;;;;;4957284;28;19922;-88
2022/12/11 04:12:55;;;;;;;;;;;;;;;;;;4957540;28;19945;-87
2022/12/11 04:15:21;;;;;;;;;;;;;;;;;;4957521;28;19922;-88
2022/12/11 04:26:01;;;;;;;;;;;;;;;;;;4970951;28;20300;-88
2022/12/11 04:28:27;;;;;;;;;;;;;;;;;;4976476;28;19922;-88
2022/12/11 04:30:53;;;;;;;;;;;;;;;;;;4976655;28;19921;-88
2022/12/11 04:33:18;;;;;;;;;;;;;;;;;;4976288;28;20060;-88
2022/12/11 04:35:44;;;;;;;;;;;;;;;;;;4975978;28;19968;-88
2022/12/11 04:38:10;;;;;;;;;;;;;;;;;;4975955;28;19965;-88
2022/12/11 04:40:36;;;;;;;;;;;;;;;;;;4975818;28;19921;-89
2022/12/11 04:43:02;;;;;;;;;;;;;;;;;;4976195;28;19922;-88
2022/12/11 04:45:28;;;;;;;;;;;;;;;;;;4976200;28;19929;-88
2022/12/11 04:47:54;;;;;;;;;;;;;;;;;;4976017;28;19922;-88
2022/12/11 04:50:20;;;;;;;;;;;;;;;;;;4975393;28;19925;-88
2022/12/11 04:52:46;;;;;;;;;;;;;;;;;;4975959;28;19944;-88
2022/12/11 04:55:12;;;;;;;;;;;;;;;;;;4976020;28;20369;-87
2022/12/11 04:57:38;;;;;;;;;;;;;;;;;;4975590;28;20423;-87
2022/12/11 05:00:04;;;;;;;;;;;;;;;;;;4975629;28;20377;-87
2022/12/11 05:02:30;;;;;;;;;;;;;;;;;;4975606;28;20021;-87
2022/12/11 05:04:56;;;;;;;;;;;;;;;;;;4975707;28;19933;-88
2022/12/11 05:07:22;;;;;;;;;;;;;;;;;;4975620;28;20274;-88
2022/12/11 05:09:48;;;;;;;;;;;;;;;;;;4975783;28;19921;-88
2022/12/11 05:12:14;;;;;;;;;;;;;;;;;;4975678;28;19922;-88
2022/12/11 05:14:40;;;;;;;;;;;;;;;;;;4975882;28;19926;-88
2022/12/11 05:17:06;;;;;;;;;;;;;;;;;;4975610;28;19937;-88
2022/12/11 05:19:32;;;;;;;;;;;;;;;;;;4975771;28;19929;-88
2022/12/11 05:21:58;;;;;;;;;;;;;;;;;;4975269;28;19922;-87
2022/12/11 05:24:23;;;;;;;;;;;;;;;;;;4974083;28;20290;-88
2022/12/11 05:26:49;;;;;;;;;;;;;;;;;;4956569;28;19981;-88
2022/12/11 05:29:18;;;;;;;;;;;;;;;;;;4955962;28;19973;-87
2022/12/11 05:31:44;;;;;;;;;;;;;;;;;;4956380;28;19922;-88
2022/12/11 05:34:10;;;;;;;;;;;;;;;;;;4956398;28;19926;-88
2022/12/11 05:36:36;;;;;;;;;;;;;;;;;;4956225;28;20025;-88
2022/12/11 05:39:02;;;;;;;;;;;;;;;;;;4956336;28;19966;-89
2022/12/11 05:41:28;;;;;;;;;;;;;;;;;;4956691;28;19926;-88
2022/12/11 05:43:54;;;;;;;;;;;;;;;;;;4957975;28;19973;-89
2022/12/11 05:46:20;;;;;;;;;;;;;;;;;;4957298;28;19926;-89
2022/12/11 05:48:46;;;;;;;;;;;;;;;;;;4955986;28;20393;-88
2022/12/11 05:51:12;;;;;;;;;;;;;;;;;;4955861;28;19972;-88
2022/12/11 05:53:38;;;;;;;;;;;;;;;;;;4955824;28;19922;-89
2022/12/11 05:56:04;;;;;;;;;;;;;;;;;;4956214;28;19972;-87
2022/12/11 05:58:30;;;;;;;;;;;;;;;;;;4955845;28;20016;-88
2022/12/11 06:00:56;;;;;;;;;;;;;;;;;;4956495;28;19969;-88
2022/12/11 06:03:22;;;;;;;;;;;;;;;;;;4958883;28;20317;-88
2022/12/11 06:05:48;;;;;;;;;;;;;;;;;;4959848;28;19930;-88
2022/12/11 06:08:14;;;;;;;;;;;;;;;;;;4960050;28;19989;-88
2022/12/11 06:10:40;;;;;;;;;;;;;;;;;;4959337;28;19985;-88
2022/12/11 06:13:06;;;;;;;;;;;;;;;;;;4959543;28;19933;-88
2022/12/11 06:15:32;;;;;;;;;;;;;;;;;;4959589;28;19923;-87
2022/12/11 06:17:58;;;;;;;;;;;;;;;;;;4959530;28;19926;-88
2022/12/11 06:20:23;;;;;;;;;;;;;;;;;;4959599;28;19922;-88
2022/12/11 06:22:49;;;;;;;;;;;;;;;;;;4959491;28;19926;-88
2022/12/11 06:25:15;;;;;;;;;;;;;;;;;;4967187;28;19926;-88
2022/12/11 06:27:41;;;;;;;;;;;;;;;;;;4978939;28;19922;-88
2022/12/11 06:30:07;;;;;;;;;;;;;;;;;;4978395;28;19921;-88
2022/12/11 06:32:36;;;;;;;;;;;;;;;;;;4978384;28;20289;-88
2022/12/11 06:35:02;;;;;;;;;;;;;;;;;;4979098;28;19922;-88
2022/12/11 06:37:28;;;;;;;;;;;;;;;;;;4978455;28;20466;-88
2022/12/11 06:39:54;;;;;;;;;;;;;;;;;;4978326;28;19925;-88
2022/12/11 06:42:20;;;;;;;;;;;;;;;;;;4978356;28;19948;-88
2022/12/11 06:44:46;;;;;;;;;;;;;;;;;;4978226;28;19981;-88
2022/12/11 06:47:12;;;;;;;;;;;;;;;;;;4978309;28;20369;-88
2022/12/11 06:49:38;;;;;;;;;;;;;;;;;;4978820;28;19928;-88
2022/12/11 06:52:04;;;;;;;;;;;;;;;;;;4978006;28;19921;-88
2022/12/11 06:54:30;;;;;;;;;;;;;;;;;;4978087;28;19926;-87
2022/12/11 06:56:56;;;;;;;;;;;;;;;;;;4978082;28;19997;-88
2022/12/11 06:59:22;;;;;;;;;;;;;;;;;;4978024;28;19922;-88
2022/12/11 07:01:48;;;;;;;;;;;;;;;;;;4978162;28;19922;-87
2022/12/11 07:04:14;;;;;;;;;;;;;;;;;;4978258;28;20293;-87
2022/12/11 07:06:40;;;;;;;;;;;;;;;;;;4977904;28;19926;-88
2022/12/11 07:09:06;;;;;;;;;;;;;;;;;;4977778;28;19945;-88
2022/12/11 07:11:32;;;;;;;;;;;;;;;;;;4977695;28;19983;-87
2022/12/11 07:13:58;;;;;;;;;;;;;;;;;;4976945;28;19932;-88
2022/12/11 07:16:24;;;;;;;;;;;;;;;;;;4977593;28;19926;-88
2022/12/11 07:18:50;;;;;;;;;;;;;;;;;;4977838;28;19926;-88
2022/12/11 07:21:16;;;;;;;;;;;;;;;;;;4977631;28;20362;-88
2022/12/11 07:23:42;;;;;;;;;;;;;;;;;;4977545;28;19973;-88
2022/12/11 07:26:08;;;;;;;;;;;;;;;;;;4977207;28;19926;-88
2022/12/11 07:28:34;;;;;;;;;;;;;;;;;;4977591;28;19976;-88
2022/12/11 07:31:00;;;;;;;;;;;;;;;;;;4977252;28;19930;-88
2022/12/11 07:33:26;;;;;;;;;;;;;;;;;;4977113;28;19922;-87
2022/12/11 07:35:52;;;;;;;;;;;;;;;;;;4977616;28;20274;-87
2022/12/11 07:38:18;;;;;;;;;;;;;;;;;;4977207;28;19952;-87
2022/12/11 07:40:44;;;;;;;;;;;;;;;;;;4977109;28;19922;-87
2022/12/11 07:43:10;;;;;;;;;;;;;;;;;;4977237;28;20122;-87
2022/12/11 07:45:36;;;;;;;;;;;;;;;;;;4977257;28;20350;-88
2022/12/11 07:48:02;;;;;;;;;;;;;;;;;;4977308;28;19922;-87
2022/12/11 07:50:28;;;;;;;;;;;;;;;;;;4977186;28;19929;-88
2022/12/11 07:52:54;;;;;;;;;;;;;;;;;;4977044;28;20294;-88
2022/12/11 07:55:20;;;;;;;;;;;;;;;;;;4976759;28;19925;-87
2022/12/11 07:57:46;;;;;;;;;;;;;;;;;;4976765;28;19930;-87
2022/12/11 08:00:12;;;;;;;;;;;;;;;;;;4976668;28;19968;-88
2022/12/11 08:02:37;;;;;;;;;;;;;;;;;;4977281;28;19925;-88
2022/12/11 08:05:03;;;;;;;;;;;;;;;;;;4976869;28;19926;-90
2022/12/11 08:07:29;;;;;;;;;;;;;;;;;;4976828;28;20392;-91
2022/12/11 08:09:55;;;;;;;;;;;;;;;;;;4977112;28;19972;-91
2022/12/11 08:12:21;;;;;;;;;;;;;;;;;;4976426;28;19922;-91
2022/12/11 08:14:47;;;;;;;;;;;;;;;;;;4976636;28;19929;-91
2022/12/11 08:17:14;;;;;;;;;;;;;;;;;;4977039;28;20012;-91
2022/12/11 08:19:40;;;;;;;;;;;;;;;;;;4976913;28;20454;-90
2022/12/11 08:22:06;;;;;;;;;;;;;;;;;;4976638;28;19921;-89
2022/12/11 08:24:32;;;;;;;;;;;;;;;;;;4974239;28;19922;-89
2022/12/11 08:26:58;;;;;;;;;;;;;;;;;;4956397;28;19933;-89
2022/12/11 08:29:24;;;;;;;;;;;;;;;;;;4957033;28;19922;-90
2022/12/11 08:31:50;;;;;;;;;;;;;;;;;;4956912;28;20437;-93
2022/12/11 08:34:16;;;;;;;;;;;;;;;;;;4957135;28;19922;-89
2022/12/11 08:36:43;;;;;;;;;;;;;;;;;;4957238;28;19978;-91
2022/12/11 08:39:09;;;;;;;;;;;;;;;;;;4957357;28;19984;-89
2022/12/11 08:41:35;;;;;;;;;;;;;;;;;;4957314;28;20430;-91
2022/12/11 08:44:01;;;;;;;;;;;;;;;;;;4957056;28;19933;-91
2022/12/11 08:46:26;;;;;;;;;;;;;;;;;;4957076;28;19929;-92
2022/12/11 08:48:52;;;;;;;;;;;;;;;;;;4959876;28;19922;-89
2022/12/11 08:51:19;;;;;;;;;;;;;;;;;;4956828;28;19982;-90
2022/12/11 08:53:45;;;;;;;;;;;;;;;;;;4956918;28;19922;-91
2022/12/11 08:56:11;;;;;;;;;;;;;;;;;;4956781;28;19929;-90
2022/12/11 08:58:37;;;;;;;;;;;;;;;;;;4956686;28;20005;-89
2022/12/11 09:01:03;;;;;;;;;;;;;;;;;;4957244;28;19987;-91
2022/12/11 09:03:29;;;;;;;;;;;;;;;;;;4957601;28;20400;-93
2022/12/11 09:05:55;;;;;;;;;;;;;;;;;;4958612;28;20390;-91
2022/12/11 09:08:21;;;;;;;;;;;;;;;;;;4957108;28;19990;-92
2022/12/11 09:10:47;;;;;;;;;;;;;;;;;;4957142;28;19926;-90
2022/12/11 09:13:13;;;;;;;;;;;;;;;;;;4956514;28;19922;-90
2022/12/11 09:15:39;;;;;;;;;;;;;;;;;;4956577;28;19922;-90
2022/12/11 09:18:05;;;;;;;;;;;;;;;;;;4956495;28;19933;-90
2022/12/11 09:20:31;;;;;;;;;;;;;;;;;;4956019;28;20188;-90
2022/12/11 09:23:00;;;;;;;;;;;;;;;;;;4956122;28;20519;-90
2022/12/11 09:25:26;;;;;;;;;;;;;;;;;;4965415;28;19996;-90
2022/12/11 09:27:52;;;;;;;;;;;;;;;;;;4975347;28;19922;-91
2022/12/11 09:30:18;;;;;;;;;;;;;;;;;;4975255;28;20384;-91
2022/12/11 09:35:20;;;;;;;;;;;;;;;;;;4990666;28;19926;-93
2022/12/11 09:37:46;;;;;;;;;;;;;;;;;;4961595;28;19926;-91
2022/12/11 09:40:12;;;;;;;;;;;;;;;;;;4963460;28;19968;-90
2022/12/11 09:42:41;;;;;;;;;;;;;;;;;;4963340;28;19922;-91
2022/12/11 09:45:07;;;;;;;;;;;;;;;;;;4963338;28;19929;-91
2022/12/11 09:47:33;;;;;;;;;;;;;;;;;;4963529;28;20099;-91
2022/12/11 09:49:59;;;;;;;;;;;;;;;;;;4962981;28;19929;-90
2022/12/11 09:52:25;;;;;;;;;;;;;;;;;;4963024;28;19933;-90
2022/12/11 09:54:51;;;;;;;;;;;;;;;;;;4978921;28;20089;-90
2022/12/11 09:57:17;;;;;;;;;;;;;;;;;;4962934;28;20003;-90
2022/12/11 09:59:43;;;;;;;;;;;;;;;;;;4963458;28;20288;-90
2022/12/11 10:02:09;;;;;;;;;;;;;;;;;;4963516;28;20104;-90
2022/12/11 10:04:35;;;;;;;;;;;;;;;;;;4979393;28;20065;-90
2022/12/11 10:07:04;;;;;;;;;;;;;;;;;;4963680;28;20318;-90
2022/12/11 10:09:30;;;;;;;;;;;;;;;;;;4963210;28;20016;-90
2022/12/11 10:11:56;;;;;;;;;;;;;;;;;;4962952;28;19980;-90
2022/12/11 10:14:22;;;;;;;;;;;;;;;;;;4962969;28;19922;-90
2022/12/11 10:16:48;;;;;;;;;;;;;;;;;;4963017;28;19926;-91
2022/12/11 10:19:14;;;;;;;;;;;;;;;;;;4962889;28;19928;-91
2022/12/11 10:21:40;;;;;;;;;;;;;;;;;;4962671;28;19922;-91
2022/12/11 10:24:05;;;;;;;;;;;;;;;;;;4963097;28;19925;-93
2022/12/11 10:26:32;;;;;;;;;;;;;;;;;;4963447;28;19922;-93
2022/12/11 10:28:57;;;;;;;;;;;;;;;;;;4962887;28;19922;-90
2022/12/11 10:31:24;;;;;;;;;;;;;;;;;;4962490;28;20012;-90
2022/12/11 10:33:50;;;;;;;;;;;;;;;;;;4979273;28;19930;-93
2022/12/11 10:36:16;;;;;;;;;;;;;;;;;;4962765;28;19925;-93
2022/12/11 10:38:42;;;;;;;;;;;;;;;;;;4945704;28;19988;-92
2022/12/11 10:41:08;;;;;;;;;;;;;;;;;;4943977;28;19977;-92
2022/12/11 10:43:35;;;;;;;;;;;;;;;;;;4963229;28;19926;-93
2022/12/11 10:46:01;;;;;;;;;;;;;;;;;;4959199;28;19988;-92
2022/12/11 10:48:27;;;;;;;;;;;;;;;;;;4958283;28;19928;-92
2022/12/11 10:50:53;;;;;;;;;;;;;;;;;;4942696;28;20008;-93
2022/12/11 10:53:19;;;;;;;;;;;;;;;;;;4943960;28;20016;-93
2022/12/11 10:55:45;;;;;;;;;;;;;;;;;;4942978;28;20038;-92
2022/12/11 10:58:11;;;;;;;;;;;;;;;;;;4943872;28;19939;-93
2022/12/11 11:00:37;;;;;;;;;;;;;;;;;;4942969;28;20389;-92
2022/12/11 11:03:03;;;;;;;;;;;;;;;;;;4947281;28;19930;-92
2022/12/11 11:05:31;;;;;;;;;;;;;;;;;;4942986;28;19922;-92
2022/12/11 11:07:57;;;;;;;;;;;;;;;;;;4943175;28;19988;-91
2022/12/11 11:10:24;;;;;;;;;;;;;;;;;;4958870;28;20009;-92
2022/12/11 11:12:50;;;;;;;;;;;;;;;;;;4944271;28;19933;-92
2022/12/11 11:15:16;;;;;;;;;;;;;;;;;;4946657;28;19947;-90
2022/12/11 11:17:42;;;;;;;;;;;;;;;;;;4950272;28;19931;-92
2022/12/11 11:20:08;;;;;;;;;;;;;;;;;;4953391;28;19922;-91
2022/12/11 11:22:34;;;;;;;;;;;;;;;;;;4965756;28;19937;-90
2022/12/11 11:25:00;;;;;;;;;;;;;;;;;;4952581;28;20420;-90
2022/12/11 11:27:26;;;;;;;;;;;;;;;;;;4942673;28;19923;-91
2022/12/11 11:29:52;;;;;;;;;;;;;;;;;;4942694;28;19922;-91
2022/12/11 11:32:18;;;;;;;;;;;;;;;;;;4942347;28;19929;-92
2022/12/11 11:34:44;;;;;;;;;;;;;;;;;;4956963;28;19992;-91
2022/12/11 11:37:10;;;;;;;;;;;;;;;;;;4961442;28;19956;-91
2022/12/11 11:39:36;;;;;;;;;;;;;;;;;;4961549;28;19973;-91
2022/12/11 11:42:02;;;;;;;;;;;;;;;;;;4962936;28;19925;-91
2022/12/11 11:44:28;;;;;;;;;;;;;;;;;;4961196;28;19928;-92
2022/12/11 11:46:54;;;;;;;;;;;;;;;;;;4961407;28;19922;-89
2022/12/11 11:49:21;;;;;;;;;;;;;;;;;;4961409;28;19928;-90
2022/12/11 11:51:47;;;;;;;;;;;;;;;;;;4961825;28;19926;-93
2022/12/11 11:54:14;;;;;;;;;;;;;;;;;;4961161;28;19952;-92
2022/12/11 11:56:40;;;;;;;;;;;;;;;;;;4961434;28;19949;-91
2022/12/11 11:59:07;;;;;;;;;;;;;;;;;;4961029;28;19929;-91
2022/12/11 12:01:33;;;;;;;;;;;;;;;;;;4976904;28;19992;-92
2022/12/11 12:03:59;;;;;;;;;;;;;;;;;;4960780;28;20389;-91
2022/12/11 12:06:25;;;;;;;;;;;;;;;;;;4961242;28;19926;-91
2022/12/11 12:08:51;;;;;;;;;;;;;;;;;;4961013;28;20435;-91
2022/12/11 12:11:17;;;;;;;;;;;;;;;;;;4961367;28;20280;-91
2022/12/11 12:13:43;;;;;;;;;;;;;;;;;;4976713;28;19921;-90
2022/12/11 12:16:10;;;;;;;;;;;;;;;;;;4960594;28;19965;-91
2022/12/11 12:18:36;;;;;;;;;;;;;;;;;;4960358;28;20385;-91
2022/12/11 12:21:02;;;;;;;;;;;;;;;;;;4960902;28;19972;-92
2022/12/11 12:23:29;;;;;;;;;;;;;;;;;;4960604;28;20341;-91
2022/12/11 12:25:55;;;;;;;;;;;;;;;;;;4963990;28;19926;-90
2022/12/11 12:28:21;;;;;;;;;;;;;;;;;;4976380;28;20266;-91
2022/12/11 12:30:47;;;;;;;;;;;;;;;;;;4960178;28;19922;-91
2022/12/11 12:33:13;;;;;;;;;;;;;;;;;;4959983;28;19921;-90
2022/12/11 12:35:39;;;;;;;;;;;;;;;;;;4976769;28;19947;-91
2022/12/11 12:38:05;;;;;;;;;;;;;;;;;;4960426;28;20027;-91
2022/12/11 12:40:31;;;;;;;;;;;;;;;;;;4960248;28;20277;-91
2022/12/11 12:42:57;;;;;;;;;;;;;;;;;;4960774;28;19928;-91
2022/12/11 12:45:23;;;;;;;;;;;;;;;;;;4976760;28;20357;-91
2022/12/11 12:47:49;;;;;;;;;;;;;;;;;;4960056;28;19932;-90
2022/12/11 12:50:15;;;;;;;;;;;;;;;;;;4960013;28;20267;-90
2022/12/11 12:52:41;;;;;;;;;;;;;;;;;;4959839;28;20333;-89
2022/12/11 12:55:14;;;;;;;;;;;;;;;;;;4976138;28;19972;-91
2022/12/11 12:57:40;;;;;;;;;;;;;;;;;;4960375;28;19946;-94
2022/12/11 13:00:07;;;;;;;;;;;;;;;;;;4961384;28;19922;-90
2022/12/11 13:02:33;;;;;;;;;;;;;;;;;;4959656;28;19981;-91
2022/12/11 13:04:59;;;;;;;;;;;;;;;;;;4959914;28;19926;-89
2022/12/11 13:07:28;;;;;;;;;;;;;;;;;;4960096;28;19925;-90
2022/12/11 13:09:54;;;;;;;;;;;;;;;;;;4976080;28;19922;-90
2022/12/11 13:12:20;;;;;;;;;;;;;;;;;;4959277;28;19976;-89
2022/12/11 13:14:46;;;;;;;;;;;;;;;;;;4960008;28;19922;-88
2022/12/11 13:17:12;;;;;;;;;;;;;;;;;;4975927;28;20432;-89
2022/12/11 13:19:38;;;;;;;;;;;;;;;;;;4959419;28;19961;-89
2022/12/11 13:22:04;;;;;;;;;;;;;;;;;;4959170;28;20016;-90
2022/12/11 13:24:30;;;;;;;;;;;;;;;;;;4959688;28;19928;-90
2022/12/11 13:26:56;;;;;;;;;;;;;;;;;;4975913;28;19933;-89
2022/12/11 13:29:23;;;;;;;;;;;;;;;;;;4974918;28;20130;-89
2022/12/11 13:31:49;;;;;;;;;;;;;;;;;;4959437;28;20373;-91
2022/12/11 13:34:15;;;;;;;;;;;;;;;;;;4975353;28;19933;-89
2022/12/11 13:36:41;;;;;;;;;;;;;;;;;;4975481;28;19922;-90
2022/12/11 13:39:09;;;;;;;;;;;;;;;;;;4959293;28;19921;-90
2022/12/11 13:41:35;;;;;;;;;;;;;;;;;;4975402;28;20401;-90
2022/12/11 13:44:01;;;;;;;;;;;;;;;;;;4959481;28;19928;-89
2022/12/11 13:46:27;;;;;;;;;;;;;;;;;;4959875;28;19928;-93
2022/12/11 13:48:55;;;;;;;;;;;;;;;;;;4959153;28;20027;-91
2022/12/11 13:51:21;;;;;;;;;;;;;;;;;;4959796;28;20365;-92
2022/12/11 13:53:49;;;;;;;;;;;;;;;;;;4959071;28;19922;-90
2022/12/11 13:56:15;;;;;;;;;;;;;;;;;;4959281;28;19932;-93
2022/12/11 13:58:41;;;;;;;;;;;;;;;;;;4959013;28;19922;-91
2022/12/11 14:01:07;;;;;;;;;;;;;;;;;;4959679;28;20336;-93
2022/12/11 14:03:33;;;;;;;;;;;;;;;;;;4959790;28;19933;-93
2022/12/11 14:05:59;;;;;;;;;;;;;;;;;;4959795;28;19929;-92
2022/12/11 14:08:25;;;;;;;;;;;;;;;;;;4959067;28;19928;-92
2022/12/11 14:10:50;;;;;;;;;;;;;;;;;;4959536;28;19929;-93
2022/12/11 14:13:16;;;;;;;;;;;;;;;;;;4959303;28;19960;-92
2022/12/11 14:15:43;;;;;;;;;;;;;;;;;;4959251;28;19928;-92
2022/12/11 14:18:09;;;;;;;;;;;;;;;;;;4958939;28;20316;-92
2022/12/11 14:20:38;;;;;;;;;;;;;;;;;;4958987;28;19922;-92
2022/12/11 14:23:04;;;;;;;;;;;;;;;;;;4960160;28;19929;-92
2022/12/11 14:25:29;;;;;;;;;;;;;;;;;;4962722;28;19921;-94
2022/12/11 14:27:55;;;;;;;;;;;;;;;;;;4962814;28;19965;-92
2022/12/11 14:30:21;;;;;;;;;;;;;;;;;;4979254;28;19929;-93
2022/12/11 14:32:51;;;;;;;;;;;;;;;;;;4979611;28;19929;-92
2022/12/11 14:35:17;;;;;;;;;;;;;;;;;;4962553;28;19926;-92
2022/12/11 14:37:43;;;;;;;;;;;;;;;;;;4962632;28;19936;-92
2022/12/11 14:40:08;;;;;;;;;;;;;;;;;;4962894;28;20285;-93
2022/12/11 14:42:34;;;;;;;;;;;;;;;;;;4963070;28;20425;-92
2022/12/11 14:45:00;;;;;;;;;;;;;;;;;;4962917;28;20357;-93
2022/12/11 14:47:26;;;;;;;;;;;;;;;;;;4962657;28;19948;-92
2022/12/11 14:49:52;;;;;;;;;;;;;;;;;;4962834;28;20373;-93
2022/12/11 14:52:31;;;;;;;;;;;;;;;;;;;;;
2022/12/11 14:54:57;;;;;;;;;;;;;;;;;;4979284;28;19972;-91
2022/12/11 14:57:23;;;;;;;;;;;;;;;;;;4978054;28;19926;-90
2022/12/11 14:59:49;;;;;;;;;;;;;;;;;;4961386;28;19925;-93
2022/12/11 15:02:16;;;;;;;;;;;;;;;;;;4961880;28;19926;-90
2022/12/11 15:04:41;;;;;;;;;;;;;;;;;;4961618;28;19964;-89
2022/12/11 15:07:07;;;;;;;;;;;;;;;;;;4961650;28;20266;-88
2022/12/11 15:09:34;;;;;;;;;;;;;;;;;;4977754;28;19925;-90
2022/12/11 15:12:00;;;;;;;;;;;;;;;;;;4961731;28;19921;-90
2022/12/11 15:14:26;;;;;;;;;;;;;;;;;;4961365;28;20420;-89
2022/12/11 15:16:52;;;;;;;;;;;;;;;;;;4977470;28;19965;-90
2022/12/11 15:19:19;;;;;;;;;;;;;;;;;;4961428;28;19922;-89
2022/12/11 15:21:44;;;;;;;;;;;;;;;;;;4977200;28;20386;-89
2022/12/11 15:24:12;;;;;;;;;;;;;;;;;;4961335;28;19928;-90
2022/12/11 15:26:38;;;;;;;;;;;;;;;;;;4977818;28;19969;-90
2022/12/11 15:29:04;;;;;;;;;;;;;;;;;;4977985;28;19930;-90
2022/12/11 15:31:30;;;;;;;;;;;;;;;;;;4978662;28;19922;-89
2022/12/11 15:33:55;;;;;;;;;;;;;;;;;;4981587;28;19930;-89
2022/12/11 15:36:21;;;;;;;;;;;;;;;;;;4982551;28;19928;-88
2022/12/11 15:38:47;;;;;;;;;;;;;;;;;;4997499;28;19929;-90
2022/12/11 15:41:13;;;;;;;;;;;;;;;;;;4982929;28;19980;-90
2022/12/11 15:43:39;;;;;;;;;;;;;;;;;;4977988;28;19922;-91
2022/12/11 15:46:06;;;;;;;;;;;;;;;;;;4992861;28;20266;-89
2022/12/11 15:48:31;;;;;;;;;;;;;;;;;;4960985;28;20373;-90
2022/12/11 15:50:57;;;;;;;;;;;;;;;;;;4977018;28;20017;-90
2022/12/11 15:53:23;;;;;;;;;;;;;;;;;;4960693;28;19926;-89
2022/12/11 15:55:49;;;;;;;;;;;;;;;;;;4976976;28;19926;-89
2022/12/11 15:58:15;;;;;;;;;;;;;;;;;;4960478;28;19929;-89
2022/12/11 16:00:41;;;;;;;;;;;;;;;;;;4976630;28;19980;-90
2022/12/11 16:03:07;;;;;;;;;;;;;;;;;;4961030;28;19922;-88
2022/12/11 16:05:33;;;;;;;;;;;;;;;;;;4976820;28;19971;-88
2022/12/11 16:07:59;;;;;;;;;;;;;;;;;;4960308;28;19965;-89
2022/12/11 16:10:25;;;;;;;;;;;;;;;;;;4976718;28;19996;-91
2022/12/11 16:12:51;;;;;;;;;;;;;;;;;;4960857;28;19921;-90
2022/12/11 16:15:17;;;;;;;;;;;;;;;;;;4960841;28;19921;-92
2022/12/11 16:17:43;;;;;;;;;;;;;;;;;;4960201;28;19973;-89
2022/12/11 16:20:09;;;;;;;;;;;;;;;;;;4960068;28;19969;-89
2022/12/11 16:22:35;;;;;;;;;;;;;;;;;;4959956;28;19926;-89
2022/12/11 16:25:01;;;;;;;;;;;;;;;;;;4960139;28;19921;-89
2022/12/11 16:27:27;;;;;;;;;;;;;;;;;;4976383;28;19961;-88
2022/12/11 16:29:53;;;;;;;;;;;;;;;;;;4962751;28;19942;-90
2022/12/11 16:32:19;;;;;;;;;;;;;;;;;;4960261;28;20309;-89
2022/12/11 16:34:45;;;;;;;;;;;;;;;;;;4959624;28;19933;-90
2022/12/11 16:37:11;;;;;;;;;;;;;;;;;;4976295;28;20365;-91
2022/12/11 16:39:37;;;;;;;;;;;;;;;;;;4976230;28;20068;-89
2022/12/11 16:42:03;;;;;;;;;;;;;;;;;;4960182;28;19973;-90
2022/12/11 16:44:29;;;;;;;;;;;;;;;;;;4960246;28;19921;-93
2022/12/11 16:46:56;;;;;;;;;;;;;;;;;;4959719;28;19926;-90
2022/12/11 16:49:22;;;;;;;;;;;;;;;;;;4960347;28;19921;-89